Mistral — TCCH — position and weather

sailwx.info

Track history (hours):
 
Tides and Currents Weather Stations Pressure Air Temp Water Temp Dewpoint Dewpoint Depression Visibility Wind Speed Wind Dir Waves Ship Positions

Mistral

Last reported at 2015-Jan-29 10:10 UTC. Time now 2015-Jan-29 22:25 UTC.
Position N 35°60' W 005°14'.

Length 126 m; draft 6.4 m.

Type: Cargo ship. MMSI: 271000615.

Date/timePositionNaut miles runAvg speedWind from/ knotsBaromVisibWave heightAir tempDewpointWater temp
2015-Jan-29 10:10N 35°60' W 005°14'812.5
2015-Jan-29 09:33N 35°59' W 005°24'218 7.5
2015-Jan-28 04:28N 37°37' W 009°26'8 8.8
2015-Jan-28 03:33N 37°45' W 009°22'9 9.3
2015-Jan-28 02:33N 37°53' W 009°16'9 9.3
2015-Jan-28 01:33N 38°02' W 009°12'9 9.0
2015-Jan-28 00:33N 38°10' W 009°08'9 9.5
2015-Jan-27 23:33N 38°19' W 009°03'9 8.9
2015-Jan-27 22:33N 38°27' W 008°59'7 6.2
2015-Jan-27 21:26N 38°30' W 008°51'0 0.0
2015-Jan-27 20:20N 38°30' W 008°51'0 0.0
2015-Jan-27 19:32N 38°30' W 008°51'0 0.0
2015-Jan-27 18:32N 38°30' W 008°51'0 0.0
2015-Jan-27 17:14N 38°30' W 008°51'0 0.0
2015-Jan-27 16:32N 38°30' W 008°51'0 0.0
2015-Jan-27 15:29N 38°30' W 008°51'0 0.0
2015-Jan-27 14:26N 38°30' W 008°51'0 0.0
2015-Jan-27 13:17N 38°30' W 008°51'0 0.0
2015-Jan-27 12:14N 38°30' W 008°51'0 0.0
2015-Jan-27 11:32N 38°30' W 008°51'0 0.0
2015-Jan-27 10:29N 38°30' W 008°51'0 0.0
2015-Jan-27 09:32N 38°30' W 008°51'0 0.0
2015-Jan-27 08:29N 38°30' W 008°51'0 0.0
2015-Jan-27 07:32N 38°30' W 008°51'0 0.0
2015-Jan-27 06:32N 38°30' W 008°51'1 1.5
2015-Jan-27 05:33N 38°31' W 008°53'0 0.4
2015-Jan-27 04:33N 38°31' W 008°53'0 0.0
2015-Jan-27 03:21N 38°31' W 008°53'0 0.1
2015-Jan-27 02:33N 38°31' W 008°53'0 0.0
2015-Jan-27 01:33N 38°31' W 008°53'0 0.0
2015-Jan-27 00:27N 38°31' W 008°53'0 0.0
2015-Jan-26 23:33N 38°31' W 008°53'0 0.0
2015-Jan-26 22:33N 38°31' W 008°53'0 0.0
2015-Jan-26 21:33N 38°31' W 008°53'0 0.0
2015-Jan-26 20:15N 38°31' W 008°53'0 0.0
2015-Jan-26 19:33N 38°31' W 008°53'0 0.0
2015-Jan-26 18:27N 38°31' W 008°53'0 0.0
2015-Jan-26 17:33N 38°31' W 008°53'0 0.0
2015-Jan-26 16:33N 38°31' W 008°53'0 0.0
2015-Jan-26 15:15N 38°31' W 008°53'0 0.0
2015-Jan-26 13:33N 38°31' W 008°53'0 0.1
2015-Jan-26 12:21N 38°31' W 008°53'0 0.0
2015-Jan-26 11:15N 38°31' W 008°53'0 0.0
2015-Jan-26 10:33N 38°31' W 008°53'0 0.0
2015-Jan-26 09:12N 38°31' W 008°53'0 0.0
2015-Jan-26 08:30N 38°31' W 008°53'0 0.1
2015-Jan-26 07:30N 38°31' W 008°53'0 0.0
2015-Jan-26 06:30N 38°31' W 008°53'0 0.0
2015-Jan-26 05:33N 38°31' W 008°53'0 0.0
2015-Jan-26 04:33N 38°31' W 008°53'0 0.0
2015-Jan-26 03:33N 38°31' W 008°53'0 0.0
2015-Jan-26 02:33N 38°31' W 008°53'0 0.0
2015-Jan-26 01:30N 38°31' W 008°53'0 0.1
2015-Jan-26 00:27N 38°31' W 008°53'0 0.0
2015-Jan-25 23:33N 38°31' W 008°53'0 0.0
2015-Jan-25 22:33N 38°31' W 008°53'0 0.0
2015-Jan-25 21:33N 38°31' W 008°53'0 0.0
2015-Jan-25 20:33N 38°31' W 008°53'0 0.1
2015-Jan-25 19:33N 38°31' W 008°53'0 0.0
2015-Jan-25 17:30N 38°31' W 008°53'0 0.0
2015-Jan-25 16:30N 38°31' W 008°53'0 0.0
2015-Jan-25 15:33N 38°31' W 008°53'0 0.0
2015-Jan-25 14:18N 38°31' W 008°53'0 0.0
2015-Jan-25 13:30N 38°31' W 008°53'0 0.1
2015-Jan-25 12:33N 38°31' W 008°53'0 0.0
2015-Jan-25 11:33N 38°31' W 008°53'0 0.0
2015-Jan-25 09:27N 38°31' W 008°53'0 0.0
2015-Jan-25 08:33N 38°31' W 008°53'0 0.1
2015-Jan-25 07:33N 38°31' W 008°53'0 0.1
2015-Jan-25 06:33N 38°31' W 008°53'7 7.0
2015-Jan-25 05:33N 38°26' W 008°60'3 3.5
2015-Jan-25 04:33N 38°23' W 008°60'4 3.6
2015-Jan-25 03:33N 38°19' W 009°02'6 5.9
2015-Jan-25 02:33N 38°14' W 009°03'9 8.4
2015-Jan-25 01:32N 38°05' W 009°04'9 9.5
2015-Jan-25 00:33N 37°56' W 009°07'9 9.4
2015-Jan-24 23:33N 37°47' W 009°09'9 9.3
2015-Jan-24 22:33N 37°38' W 009°12'9 9.0
2015-Jan-24 21:30N 37°29' W 009°15'200 7.7
2015-Jan-23 19:25N 35°59' W 005°31'6 6.4
2015-Jan-23 18:33N 36°00' W 005°25'6 6.1
2015-Jan-23 17:33N 36°02' W 005°17'6 5.7
2015-Jan-23 16:33N 36°03' W 005°10'219 8.3
2015-Jan-22 14:08N 37°20' W 000°55'6 9.9
2015-Jan-22 13:33N 37°24' W 000°49'176 9.8
2015-Jan-21 19:28N 39°60' E 000°55'9 9.7
2015-Jan-21 18:33N 40°09' E 000°57'10 9.1
2015-Jan-21 17:30N 40°18' E 000°58'11 9.9
2015-Jan-21 16:23N 40°29' E 001°01'  
Track history (hours):
 
Tides and Currents Weather Stations Pressure Air Temp Water Temp Dewpoint Dewpoint Depression Visibility Wind Speed Wind Dir Waves Ship Positions

Mistral

Last reported at 2015-Jan-29 10:10 UTC. Time now 2015-Jan-29 22:25 UTC.
Position N 35°60' W 005°14'.

Length 126 m; draft 6.4 m.

Type: Cargo ship. MMSI: 271000615.

Date/timePositionNaut miles runAvg speedWind from/ knotsBaromVisibWave heightAir tempDewpointWater temp
2015-Jan-29 10:10N 35°60' W 005°14'812.5
2015-Jan-29 09:33N 35°59' W 005°24'218 7.5
2015-Jan-28 04:28N 37°37' W 009°26'8 8.8
2015-Jan-28 03:33N 37°45' W 009°22'9 9.3
2015-Jan-28 02:33N 37°53' W 009°16'9 9.3
2015-Jan-28 01:33N 38°02' W 009°12'9 9.0
2015-Jan-28 00:33N 38°10' W 009°08'9 9.5
2015-Jan-27 23:33N 38°19' W 009°03'9 8.9
2015-Jan-27 22:33N 38°27' W 008°59'7 6.2
2015-Jan-27 21:26N 38°30' W 008°51'0 0.0
2015-Jan-27 20:20N 38°30' W 008°51'0 0.0
2015-Jan-27 19:32N 38°30' W 008°51'0 0.0
2015-Jan-27 18:32N 38°30' W 008°51'0 0.0
2015-Jan-27 17:14N 38°30' W 008°51'0 0.0
2015-Jan-27 16:32N 38°30' W 008°51'0 0.0
2015-Jan-27 15:29N 38°30' W 008°51'0 0.0
2015-Jan-27 14:26N 38°30' W 008°51'0 0.0
2015-Jan-27 13:17N 38°30' W 008°51'0 0.0
2015-Jan-27 12:14N 38°30' W 008°51'0 0.0
2015-Jan-27 11:32N 38°30' W 008°51'0 0.0
2015-Jan-27 10:29N 38°30' W 008°51'0 0.0
2015-Jan-27 09:32N 38°30' W 008°51'0 0.0
2015-Jan-27 08:29N 38°30' W 008°51'0 0.0
2015-Jan-27 07:32N 38°30' W 008°51'0 0.0
2015-Jan-27 06:32N 38°30' W 008°51'1 1.5
2015-Jan-27 05:33N 38°31' W 008°53'0 0.4
2015-Jan-27 04:33N 38°31' W 008°53'0 0.0
2015-Jan-27 03:21N 38°31' W 008°53'0 0.1
2015-Jan-27 02:33N 38°31' W 008°53'0 0.0
2015-Jan-27 01:33N 38°31' W 008°53'0 0.0
2015-Jan-27 00:27N 38°31' W 008°53'0 0.0
2015-Jan-26 23:33N 38°31' W 008°53'0 0.0
2015-Jan-26 22:33N 38°31' W 008°53'0 0.0
2015-Jan-26 21:33N 38°31' W 008°53'0 0.0
2015-Jan-26 20:15N 38°31' W 008°53'0 0.0
2015-Jan-26 19:33N 38°31' W 008°53'0 0.0
2015-Jan-26 18:27N 38°31' W 008°53'0 0.0
2015-Jan-26 17:33N 38°31' W 008°53'0 0.0
2015-Jan-26 16:33N 38°31' W 008°53'0 0.0
2015-Jan-26 15:15N 38°31' W 008°53'0 0.0
2015-Jan-26 13:33N 38°31' W 008°53'0 0.1
2015-Jan-26 12:21N 38°31' W 008°53'0 0.0
2015-Jan-26 11:15N 38°31' W 008°53'0 0.0
2015-Jan-26 10:33N 38°31' W 008°53'0 0.0
2015-Jan-26 09:12N 38°31' W 008°53'0 0.0
2015-Jan-26 08:30N 38°31' W 008°53'0 0.1
2015-Jan-26 07:30N 38°31' W 008°53'0 0.0
2015-Jan-26 06:30N 38°31' W 008°53'0 0.0
2015-Jan-26 05:33N 38°31' W 008°53'0 0.0
2015-Jan-26 04:33N 38°31' W 008°53'0 0.0
2015-Jan-26 03:33N 38°31' W 008°53'0 0.0
2015-Jan-26 02:33N 38°31' W 008°53'0 0.0
2015-Jan-26 01:30N 38°31' W 008°53'0 0.1
2015-Jan-26 00:27N 38°31' W 008°53'0 0.0
2015-Jan-25 23:33N 38°31' W 008°53'0 0.0
2015-Jan-25 22:33N 38°31' W 008°53'0 0.0
2015-Jan-25 21:33N 38°31' W 008°53'0 0.0
2015-Jan-25 20:33N 38°31' W 008°53'0 0.1
2015-Jan-25 19:33N 38°31' W 008°53'0 0.0
2015-Jan-25 17:30N 38°31' W 008°53'0 0.0
2015-Jan-25 16:30N 38°31' W 008°53'0 0.0
2015-Jan-25 15:33N 38°31' W 008°53'0 0.0
2015-Jan-25 14:18N 38°31' W 008°53'0 0.0
2015-Jan-25 13:30N 38°31' W 008°53'0 0.1
2015-Jan-25 12:33N 38°31' W 008°53'0 0.0
2015-Jan-25 11:33N 38°31' W 008°53'0 0.0
2015-Jan-25 09:27N 38°31' W 008°53'0 0.0
2015-Jan-25 08:33N 38°31' W 008°53'0 0.1
2015-Jan-25 07:33N 38°31' W 008°53'0 0.1
2015-Jan-25 06:33N 38°31' W 008°53'7 7.0
2015-Jan-25 05:33N 38°26' W 008°60'3 3.5
2015-Jan-25 04:33N 38°23' W 008°60'4 3.6
2015-Jan-25 03:33N 38°19' W 009°02'6 5.9
2015-Jan-25 02:33N 38°14' W 009°03'9 8.4
2015-Jan-25 01:32N 38°05' W 009°04'9 9.5
2015-Jan-25 00:33N 37°56' W 009°07'9 9.4
2015-Jan-24 23:33N 37°47' W 009°09'9 9.3
2015-Jan-24 22:33N 37°38' W 009°12'9 9.0
2015-Jan-24 21:30N 37°29' W 009°15'200 7.7
2015-Jan-23 19:25N 35°59' W 005°31'6 6.4
2015-Jan-23 18:33N 36°00' W 005°25'6 6.1
2015-Jan-23 17:33N 36°02' W 005°17'6 5.7
2015-Jan-23 16:33N 36°03' W 005°10'219 8.3
2015-Jan-22 14:08N 37°20' W 000°55'6 9.9
2015-Jan-22 13:33N 37°24' W 000°49'176 9.8
2015-Jan-21 19:28N 39°60' E 000°55'9 9.7
2015-Jan-21 18:33N 40°09' E 000°57'10 9.1
2015-Jan-21 17:30N 40°18' E 000°58'11 9.9
2015-Jan-21 16:23N 40°29' E 001°01'  

Dump ship's entire track history